sensor_id;sensor_type;location;lat;lon;timestamp;temperature;humidity
8684;DHT22;4379;59.744;18.206;2023-03-01T00:01:19;-1.00;99.90
8684;DHT22;4379;59.744;18.206;2023-03-01T00:03:47;-1.00;99.90
8684;DHT22;4379;59.744;18.206;2023-03-01T00:06:15;-0.90;99.90
8684;DHT22;4379;59.744;18.206;2023-03-01T00:08:42;-0.80;99.90
8684;DHT22;4379;59.744;18.206;2023-03-01T00:11:19;-0.70;99.90
8684;DHT22;4379;59.744;18.206;2023-03-01T00:13:49;-0.50;99.90
8684;DHT22;4379;59.744;18.206;2023-03-01T00:16:26;-0.40;99.90
8684;DHT22;4379;59.744;18.206;2023-03-01T00:18:55;-0.30;99.90
8684;DHT22;4379;59.744;18.206;2023-03-01T00:21:24;-0.30;99.90
8684;DHT22;4379;59.744;18.206;2023-03-01T00:23:52;-0.40;99.90
8684;DHT22;4379;59.744;18.206;2023-03-01T00:26:21;-0.40;99.90
8684;DHT22;4379;59.744;18.206;2023-03-01T00:28:49;-0.40;99.90
8684;DHT22;4379;59.744;18.206;2023-03-01T00:31:19;-0.30;99.90
8684;DHT22;4379;59.744;18.206;2023-03-01T00:33:48;-0.40;99.90
8684;DHT22;4379;59.744;18.206;2023-03-01T00:36:15;-0.40;99.90
8684;DHT22;4379;59.744;18.206;2023-03-01T00:38:45;-0.50;99.90
8684;DHT22;4379;59.744;18.206;2023-03-01T00:41:16;-0.50;99.90
8684;DHT22;4379;59.744;18.206;2023-03-01T00:43:44;-0.50;99.90
8684;DHT22;4379;59.744;18.206;2023-03-01T00:46:14;-0.60;99.90
8684;DHT22;4379;59.744;18.206;2023-03-01T00:48:42;-0.60;99.90
8684;DHT22;4379;59.744;18.206;2023-03-01T00:51:15;-0.60;99.90
8684;DHT22;4379;59.744;18.206;2023-03-01T00:53:43;-0.60;99.90
8684;DHT22;4379;59.744;18.206;2023-03-01T00:56:12;-0.60;99.90
8684;DHT22;4379;59.744;18.206;2023-03-01T00:58:40;-0.60;99.90
8684;DHT22;4379;59.744;18.206;2023-03-01T01:01:17;-0.60;99.90
8684;DHT22;4379;59.744;18.206;2023-03-01T01:03:50;-0.60;99.90
8684;DHT22;4379;59.744;18.206;2023-03-01T01:06:26;-0.60;99.90
8684;DHT22;4379;59.744;18.206;2023-03-01T01:08:55;-0.50;99.90
8684;DHT22;4379;59.744;18.206;2023-03-01T01:11:24;-0.50;99.90
8684;DHT22;4379;59.744;18.206;2023-03-01T01:13:52;-0.60;99.90
8684;DHT22;4379;59.744;18.206;2023-03-01T01:16:22;-0.70;99.90
8684;DHT22;4379;59.744;18.206;2023-03-01T01:18:49;-0.80;99.90
8684;DHT22;4379;59.744;18.206;2023-03-01T01:21:21;-0.90;99.90
8684;DHT22;4379;59.744;18.206;2023-03-01T01:23:49;-1.00;99.90
8684;DHT22;4379;59.744;18.206;2023-03-01T01:26:20;-1.00;99.90
8684;DHT22;4379;59.744;18.206;2023-03-01T01:28:48;-1.10;99.90
8684;DHT22;4379;59.744;18.206;2023-03-01T01:31:17;-1.20;99.90
8684;DHT22;4379;59.744;18.206;2023-03-01T01:33:45;-1.10;99.90
8684;DHT22;4379;59.744;18.206;2023-03-01T01:36:12;-1.10;99.90
8684;DHT22;4379;59.744;18.206;2023-03-01T01:38:40;-1.10;99.90
8684;DHT22;4379;59.744;18.206;2023-03-01T01:41:10;-1.20;99.90
8684;DHT22;4379;59.744;18.206;2023-03-01T01:44:08;-1.40;99.90
8684;DHT22;4379;59.744;18.206;2023-03-01T01:46:33;-1.60;99.90
8684;DHT22;4379;59.744;18.206;2023-03-01T01:51:44;-1.70;99.90
8684;DHT22;4379;59.744;18.206;2023-03-01T01:54:39;-1.80;99.90
8684;DHT22;4379;59.744;18.206;2023-03-01T01:57:11;-1.90;99.90
8684;DHT22;4379;59.744;18.206;2023-03-01T01:59:41;-2.00;99.90
8684;DHT22;4379;59.744;18.206;2023-03-01T02:02:11;-2.00;99.90
8684;DHT22;4379;59.744;18.206;2023-03-01T02:04:39;-2.00;99.90
8684;DHT22;4379;59.744;18.206;2023-03-01T02:07:18;-2.00;99.90
8684;DHT22;4379;59.744;18.206;2023-03-01T02:09:48;-2.10;99.90
8684;DHT22;4379;59.744;18.206;2023-03-01T02:12:18;-2.10;99.90
8684;DHT22;4379;59.744;18.206;2023-03-01T02:14:46;-2.10;99.90
8684;DHT22;4379;59.744;18.206;2023-03-01T02:17:17;-2.10;99.90
8684;DHT22;4379;59.744;18.206;2023-03-01T02:22:24;-2.10;99.90
8684;DHT22;4379;59.744;18.206;2023-03-01T02:25:08;-2.00;99.90
8684;DHT22;4379;59.744;18.206;2023-03-01T02:30:27;-1.90;99.90
8684;DHT22;4379;59.744;18.206;2023-03-01T02:32:56;-1.90;99.90
8684;DHT22;4379;59.744;18.206;2023-03-01T02:35:36;-1.80;99.90
8684;DHT22;4379;59.744;18.206;2023-03-01T02:38:07;-1.70;99.90
8684;DHT22;4379;59.744;18.206;2023-03-01T02:40:38;-1.70;99.90
8684;DHT22;4379;59.744;18.206;2023-03-01T02:43:08;-1.60;99.90
8684;DHT22;4379;59.744;18.206;2023-03-01T02:45:37;-1.40;99.90
8684;DHT22;4379;59.744;18.206;2023-03-01T02:48:10;-1.30;99.90
8684;DHT22;4379;59.744;18.206;2023-03-01T02:50:56;-1.20;99.90
8684;DHT22;4379;59.744;18.206;2023-03-01T02:56:22;-1.00;99.90
8684;DHT22;4379;59.744;18.206;2023-03-01T02:58:50;-1.00;99.90
8684;DHT22;4379;59.744;18.206;2023-03-01T03:01:19;-1.00;99.90
8684;DHT22;4379;59.744;18.206;2023-03-01T03:03:47;-0.90;99.90
8684;DHT22;4379;59.744;18.206;2023-03-01T03:06:14;-0.90;99.90
8684;DHT22;4379;59.744;18.206;2023-03-01T03:08:42;-0.80;99.90
8684;DHT22;4379;59.744;18.206;2023-03-01T03:11:11;-0.80;99.90
8684;DHT22;4379;59.744;18.206;2023-03-01T03:13:38;-0.80;99.90
8684;DHT22;4379;59.744;18.206;2023-03-01T03:16:15;-0.80;99.90
8684;DHT22;4379;59.744;18.206;2023-03-01T03:18:43;-0.80;99.90
8684;DHT22;4379;59.744;18.206;2023-03-01T03:21:12;-0.80;99.90
8684;DHT22;4379;59.744;18.206;2023-03-01T03:23:39;-0.70;99.90
8684;DHT22;4379;59.744;18.206;2023-03-01T03:26:07;-0.70;99.90
8684;DHT22;4379;59.744;18.206;2023-03-01T03:28:35;-0.70;99.90
8684;DHT22;4379;59.744;18.206;2023-03-01T03:31:06;-0.70;99.90
8684;DHT22;4379;59.744;18.206;2023-03-01T03:33:33;-0.80;99.90
8684;DHT22;4379;59.744;18.206;2023-03-01T03:36:01;-0.80;99.90
8684;DHT22;4379;59.744;18.206;2023-03-01T03:38:28;-0.80;99.90
8684;DHT22;4379;59.744;18.206;2023-03-01T03:41:05;-0.80;99.90
8684;DHT22;4379;59.744;18.206;2023-03-01T03:43:36;-0.90;99.90
8684;DHT22;4379;59.744;18.206;2023-03-01T03:46:04;-0.80;99.90
8684;DHT22;4379;59.744;18.206;2023-03-01T03:48:38;-0.80;99.90
8684;DHT22;4379;59.744;18.206;2023-03-01T03:51:06;-0.80;99.90
8684;DHT22;4379;59.744;18.206;2023-03-01T03:53:34;-0.90;99.90
8684;DHT22;4379;59.744;18.206;2023-03-01T03:56:01;-0.90;99.90
8684;DHT22;4379;59.744;18.206;2023-03-01T03:58:29;-0.90;99.90
8684;DHT22;4379;59.744;18.206;2023-03-01T04:00:57;-1.10;99.90
8684;DHT22;4379;59.744;18.206;2023-03-01T04:03:25;-1.20;99.90
8684;DHT22;4379;59.744;18.206;2023-03-01T04:05:53;-1.30;99.90
8684;DHT22;4379;59.744;18.206;2023-03-01T04:08:22;-1.40;99.90
8684;DHT22;4379;59.744;18.206;2023-03-01T04:10:52;-1.50;99.90
8684;DHT22;4379;59.744;18.206;2023-03-01T04:13:21;-1.60;99.90
8684;DHT22;4379;59.744;18.206;2023-03-01T04:15:53;-1.80;99.90
8684;DHT22;4379;59.744;18.206;2023-03-01T04:18:23;-2.00;99.90
8684;DHT22;4379;59.744;18.206;2023-03-01T04:20:53;-2.00;99.90
8684;DHT22;4379;59.744;18.206;2023-03-01T04:23:22;-2.20;99.90
8684;DHT22;4379;59.744;18.206;2023-03-01T04:25:55;-2.30;99.90
8684;DHT22;4379;59.744;18.206;2023-03-01T04:28:36;-2.20;99.90
8684;DHT22;4379;59.744;18.206;2023-03-01T04:31:10;-2.20;99.90
8684;DHT22;4379;59.744;18.206;2023-03-01T04:33:42;-2.20;99.90
8684;DHT22;4379;59.744;18.206;2023-03-01T04:36:11;-2.30;99.90
8684;DHT22;4379;59.744;18.206;2023-03-01T04:38:39;-2.30;99.90
8684;DHT22;4379;59.744;18.206;2023-03-01T04:41:09;-2.40;99.90
8684;DHT22;4379;59.744;18.206;2023-03-01T04:43:38;-2.40;99.90
8684;DHT22;4379;59.744;18.206;2023-03-01T04:46:07;-2.40;99.90
8684;DHT22;4379;59.744;18.206;2023-03-01T04:48:40;-2.50;99.90
8684;DHT22;4379;59.744;18.206;2023-03-01T04:51:08;-2.60;99.90
8684;DHT22;4379;59.744;18.206;2023-03-01T04:53:36;-2.60;99.90
8684;DHT22;4379;59.744;18.206;2023-03-01T04:56:04;-2.70;99.90
8684;DHT22;4379;59.744;18.206;2023-03-01T04:58:31;-2.60;99.90
8684;DHT22;4379;59.744;18.206;2023-03-01T05:00:59;-2.60;99.90
8684;DHT22;4379;59.744;18.206;2023-03-01T05:03:26;-2.50;99.90
8684;DHT22;4379;59.744;18.206;2023-03-01T05:05:58;-2.50;99.90
8684;DHT22;4379;59.744;18.206;2023-03-01T05:08:26;-2.60;99.90
8684;DHT22;4379;59.744;18.206;2023-03-01T05:10:54;-2.70;99.90
8684;DHT22;4379;59.744;18.206;2023-03-01T05:13:21;-2.70;99.90
8684;DHT22;4379;59.744;18.206;2023-03-01T05:15:59;-2.70;99.90
8684;DHT22;4379;59.744;18.206;2023-03-01T05:18:31;-2.80;99.90
8684;DHT22;4379;59.744;18.206;2023-03-01T05:21:10;-2.70;99.90
8684;DHT22;4379;59.744;18.206;2023-03-01T05:23:38;-2.70;99.90
8684;DHT22;4379;59.744;18.206;2023-03-01T05:26:06;-2.80;99.90
8684;DHT22;4379;59.744;18.206;2023-03-01T05:28:48;-2.80;99.90
8684;DHT22;4379;59.744;18.206;2023-03-01T05:31:15;-2.80;99.90
8684;DHT22;4379;59.744;18.206;2023-03-01T05:33:43;-2.90;99.90
8684;DHT22;4379;59.744;18.206;2023-03-01T05:36:10;-2.90;99.90
8684;DHT22;4379;59.744;18.206;2023-03-01T05:38:38;-2.90;99.90
8684;DHT22;4379;59.744;18.206;2023-03-01T05:41:05;-2.90;99.90
8684;DHT22;4379;59.744;18.206;2023-03-01T05:43:40;-2.90;99.90
8684;DHT22;4379;59.744;18.206;2023-03-01T05:46:10;-2.90;99.90
8684;DHT22;4379;59.744;18.206;2023-03-01T05:48:40;-2.90;99.90
8684;DHT22;4379;59.744;18.206;2023-03-01T05:51:07;-2.90;99.90
8684;DHT22;4379;59.744;18.206;2023-03-01T05:53:35;-2.90;99.90
8684;DHT22;4379;59.744;18.206;2023-03-01T05:56:04;-3.00;99.90
8684;DHT22;4379;59.744;18.206;2023-03-01T05:58:31;-2.90;99.90
8684;DHT22;4379;59.744;18.206;2023-03-01T06:00:59;-2.80;99.90
8684;DHT22;4379;59.744;18.206;2023-03-01T06:03:26;-2.70;99.90
8684;DHT22;4379;59.744;18.206;2023-03-01T06:05:57;-2.70;99.90
8684;DHT22;4379;59.744;18.206;2023-03-01T06:08:25;-2.70;99.90
8684;DHT22;4379;59.744;18.206;2023-03-01T06:10:54;-2.70;99.90
8684;DHT22;4379;59.744;18.206;2023-03-01T06:13:22;-2.70;99.90
8684;DHT22;4379;59.744;18.206;2023-03-01T06:15:50;-2.60;99.90
8684;DHT22;4379;59.744;18.206;2023-03-01T06:18:19;-2.50;99.90
8684;DHT22;4379;59.744;18.206;2023-03-01T06:20:53;-2.40;99.90
8684;DHT22;4379;59.744;18.206;2023-03-01T06:23:21;-2.30;99.90
8684;DHT22;4379;59.744;18.206;2023-03-01T06:25:48;-2.30;99.90
8684;DHT22;4379;59.744;18.206;2023-03-01T06:28:16;-2.30;99.90
8684;DHT22;4379;59.744;18.206;2023-03-01T06:30:44;-2.30;99.90
8684;DHT22;4379;59.744;18.206;2023-03-01T06:33:11;-2.30;99.90
8684;DHT22;4379;59.744;18.206;2023-03-01T06:35:39;-2.30;99.90
8684;DHT22;4379;59.744;18.206;2023-03-01T06:38:06;-2.20;99.90
8684;DHT22;4379;59.744;18.206;2023-03-01T06:40:34;-2.10;99.90
8684;DHT22;4379;59.744;18.206;2023-03-01T06:43:02;-2.00;99.90
8684;DHT22;4379;59.744;18.206;2023-03-01T06:45:29;-1.80;99.90
8684;DHT22;4379;59.744;18.206;2023-03-01T06:48:05;-1.80;99.90
8684;DHT22;4379;59.744;18.206;2023-03-01T06:50:33;-1.70;99.90
8684;DHT22;4379;59.744;18.206;2023-03-01T06:53:02;-1.70;99.90
8684;DHT22;4379;59.744;18.206;2023-03-01T06:55:29;-1.60;99.90
8684;DHT22;4379;59.744;18.206;2023-03-01T06:57:58;-1.40;99.90
8684;DHT22;4379;59.744;18.206;2023-03-01T07:00:26;-1.20;99.90
8684;DHT22;4379;59.744;18.206;2023-03-01T07:02:54;-1.20;99.90
8684;DHT22;4379;59.744;18.206;2023-03-01T07:05:25;-1.20;99.90
8684;DHT22;4379;59.744;18.206;2023-03-01T07:07:53;-1.20;99.90
8684;DHT22;4379;59.744;18.206;2023-03-01T07:10:21;-1.10;99.90
8684;DHT22;4379;59.744;18.206;2023-03-01T07:12:48;-1.00;99.90
8684;DHT22;4379;59.744;18.206;2023-03-01T07:15:16;-1.00;99.90
8684;DHT22;4379;59.744;18.206;2023-03-01T07:17:43;-0.80;99.90
8684;DHT22;4379;59.744;18.206;2023-03-01T07:20:12;-0.70;99.90
8684;DHT22;4379;59.744;18.206;2023-03-01T07:22:42;-0.50;99.90
8684;DHT22;4379;59.744;18.206;2023-03-01T07:25:10;-0.50;99.90
8684;DHT22;4379;59.744;18.206;2023-03-01T07:27:38;-0.50;99.90
8684;DHT22;4379;59.744;18.206;2023-03-01T07:30:06;-0.40;99.90
8684;DHT22;4379;59.744;18.206;2023-03-01T07:32:33;-0.30;99.90
8684;DHT22;4379;59.744;18.206;2023-03-01T07:35:01;-0.20;99.90
8684;DHT22;4379;59.744;18.206;2023-03-01T07:37:28;-0.20;99.90
8684;DHT22;4379;59.744;18.206;2023-03-01T07:39:56;0.00;99.90
8684;DHT22;4379;59.744;18.206;2023-03-01T07:42:24;0.10;99.90
8684;DHT22;4379;59.744;18.206;2023-03-01T07:44:51;0.40;99.90
8684;DHT22;4379;59.744;18.206;2023-03-01T07:47:18;0.40;99.90
8684;DHT22;4379;59.744;18.206;2023-03-01T07:49:46;0.60;99.90
8684;DHT22;4379;59.744;18.206;2023-03-01T07:52:13;0.90;99.90
8684;DHT22;4379;59.744;18.206;2023-03-01T07:54:42;1.30;99.90
8684;DHT22;4379;59.744;18.206;2023-03-01T07:57:11;1.90;99.90
8684;DHT22;4379;59.744;18.206;2023-03-01T07:59:38;2.80;99.90
8684;DHT22;4379;59.744;18.206;2023-03-01T08:02:06;3.80;99.90
8684;DHT22;4379;59.744;18.206;2023-03-01T08:04:34;4.80;99.90
8684;DHT22;4379;59.744;18.206;2023-03-01T08:07:03;5.80;99.90
8684;DHT22;4379;59.744;18.206;2023-03-01T08:09:33;6.90;99.90
8684;DHT22;4379;59.744;18.206;2023-03-01T08:12:01;7.70;99.90
8684;DHT22;4379;59.744;18.206;2023-03-01T08:14:29;8.10;99.90
8684;DHT22;4379;59.744;18.206;2023-03-01T08:16:56;6.90;99.90
8684;DHT22;4379;59.744;18.206;2023-03-01T08:19:24;6.10;99.90
8684;DHT22;4379;59.744;18.206;2023-03-01T08:21:51;5.10;99.90
8684;DHT22;4379;59.744;18.206;2023-03-01T08:24:19;4.70;99.90
8684;DHT22;4379;59.744;18.206;2023-03-01T08:26:46;4.10;99.90
8684;DHT22;4379;59.744;18.206;2023-03-01T08:29:13;3.90;99.90
8684;DHT22;4379;59.744;18.206;2023-03-01T08:31:41;3.70;99.90
8684;DHT22;4379;59.744;18.206;2023-03-01T08:34:11;3.30;99.90
8684;DHT22;4379;59.744;18.206;2023-03-01T08:36:41;3.10;99.90
8684;DHT22;4379;59.744;18.206;2023-03-01T08:39:12;3.00;99.90
8684;DHT22;4379;59.744;18.206;2023-03-01T08:41:40;3.10;99.90
8684;DHT22;4379;59.744;18.206;2023-03-01T08:44:08;3.10;99.90
8684;DHT22;4379;59.744;18.206;2023-03-01T08:46:41;3.40;99.90
8684;DHT22;4379;59.744;18.206;2023-03-01T08:49:12;3.70;99.90
8684;DHT22;4379;59.744;18.206;2023-03-01T08:51:40;4.10;99.90
8684;DHT22;4379;59.744;18.206;2023-03-01T08:54:13;4.80;99.90
8684;DHT22;4379;59.744;18.206;2023-03-01T08:56:42;5.60;99.90
8684;DHT22;4379;59.744;18.206;2023-03-01T08:59:11;5.70;99.90
8684;DHT22;4379;59.744;18.206;2023-03-01T09:01:39;5.80;99.90
8684;DHT22;4379;59.744;18.206;2023-03-01T09:04:07;5.80;99.90
8684;DHT22;4379;59.744;18.206;2023-03-01T09:06:34;5.80;99.90
8684;DHT22;4379;59.744;18.206;2023-03-01T09:09:03;5.80;99.90
8684;DHT22;4379;59.744;18.206;2023-03-01T09:11:31;5.60;99.90
8684;DHT22;4379;59.744;18.206;2023-03-01T09:13:58;5.60;99.90
8684;DHT22;4379;59.744;18.206;2023-03-01T09:16:26;5.70;99.90
8684;DHT22;4379;59.744;18.206;2023-03-01T09:18:54;5.30;99.90
8684;DHT22;4379;59.744;18.206;2023-03-01T09:21:23;5.40;99.90
8684;DHT22;4379;59.744;18.206;2023-03-01T09:24:13;6.20;99.90
8684;DHT22;4379;59.744;18.206;2023-03-01T09:26:41;7.00;99.90
8684;DHT22;4379;59.744;18.206;2023-03-01T09:29:12;7.50;99.90
8684;DHT22;4379;59.744;18.206;2023-03-01T09:31:40;8.20;99.90
8684;DHT22;4379;59.744;18.206;2023-03-01T09:34:08;8.10;99.90
8684;DHT22;4379;59.744;18.206;2023-03-01T09:36:37;8.60;99.90
8684;DHT22;4379;59.744;18.206;2023-03-01T09:39:07;9.30;99.90
8684;DHT22;4379;59.744;18.206;2023-03-01T09:47:00;8.40;99.90
8684;DHT22;4379;59.744;18.206;2023-03-01T09:49:39;7.20;99.90
8684;DHT22;4379;59.744;18.206;2023-03-01T09:52:25;6.40;99.90
8684;DHT22;4379;59.744;18.206;2023-03-01T09:54:56;6.10;99.90
8684;DHT22;4379;59.744;18.206;2023-03-01T09:57:36;6.00;99.90
8684;DHT22;4379;59.744;18.206;2023-03-01T10:08:38;6.30;99.90
8684;DHT22;4379;59.744;18.206;2023-03-01T10:11:28;6.10;99.90
8684;DHT22;4379;59.744;18.206;2023-03-01T10:14:48;6.20;99.90
8684;DHT22;4379;59.744;18.206;2023-03-01T10:17:22;6.50;99.90
8684;DHT22;4379;59.744;18.206;2023-03-01T10:19:51;6.40;99.90
8684;DHT22;4379;59.744;18.206;2023-03-01T10:22:28;6.50;99.90
8684;DHT22;4379;59.744;18.206;2023-03-01T10:24:59;6.50;99.90
8684;DHT22;4379;59.744;18.206;2023-03-01T10:27:40;6.70;99.90
8684;DHT22;4379;59.744;18.206;2023-03-01T10:32:39;6.30;99.90
8684;DHT22;4379;59.744;18.206;2023-03-01T10:35:21;6.30;99.90
8684;DHT22;4379;59.744;18.206;2023-03-01T10:38:15;6.20;99.90
8684;DHT22;4379;59.744;18.206;2023-03-01T10:40:56;6.20;99.90
8684;DHT22;4379;59.744;18.206;2023-03-01T10:43:25;6.30;99.90
8684;DHT22;4379;59.744;18.206;2023-03-01T10:46:00;6.30;99.90
8684;DHT22;4379;59.744;18.206;2023-03-01T10:48:27;6.30;99.90
8684;DHT22;4379;59.744;18.206;2023-03-01T10:53:41;6.40;99.90
8684;DHT22;4379;59.744;18.206;2023-03-01T10:56:28;6.40;99.90
8684;DHT22;4379;59.744;18.206;2023-03-01T10:59:00;6.30;99.90
8684;DHT22;4379;59.744;18.206;2023-03-01T11:01:30;6.40;99.90
8684;DHT22;4379;59.744;18.206;2023-03-01T11:06:40;6.50;99.90
8684;DHT22;4379;59.744;18.206;2023-03-01T11:09:23;6.60;99.90
8684;DHT22;4379;59.744;18.206;2023-03-01T11:11:59;6.60;99.90
8684;DHT22;4379;59.744;18.206;2023-03-01T11:14:35;6.70;99.90
8684;DHT22;4379;59.744;18.206;2023-03-01T11:20:01;6.90;99.90
8684;DHT22;4379;59.744;18.206;2023-03-01T11:22:29;7.00;99.90
8684;DHT22;4379;59.744;18.206;2023-03-01T11:24:59;6.90;99.90
8684;DHT22;4379;59.744;18.206;2023-03-01T11:27:44;6.90;99.90
8684;DHT22;4379;59.744;18.206;2023-03-01T11:38:53;7.20;99.90
8684;DHT22;4379;59.744;18.206;2023-03-01T11:41:26;7.40;99.90
8684;DHT22;4379;59.744;18.206;2023-03-01T11:43:59;7.40;99.90
8684;DHT22;4379;59.744;18.206;2023-03-01T12:04:27;7.70;99.90
8684;DHT22;4379;59.744;18.206;2023-03-01T12:09:56;7.80;99.90
8684;DHT22;4379;59.744;18.206;2023-03-01T12:13:08;7.90;99.90
8684;DHT22;4379;59.744;18.206;2023-03-01T12:26:36;7.80;99.90
8684;DHT22;4379;59.744;18.206;2023-03-01T12:34:43;7.80;99.90
8684;DHT22;4379;59.744;18.206;2023-03-01T12:45:27;7.70;99.90
8684;DHT22;4379;59.744;18.206;2023-03-01T12:48:16;7.70;99.90
8684;DHT22;4379;59.744;18.206;2023-03-01T12:50:53;7.80;99.90
8684;DHT22;4379;59.744;18.206;2023-03-01T12:53:27;7.90;99.90
8684;DHT22;4379;59.744;18.206;2023-03-01T12:56:00;7.90;99.90
8684;DHT22;4379;59.744;18.206;2023-03-01T13:04:24;7.70;99.90
8684;DHT22;4379;59.744;18.206;2023-03-01T13:18:34;7.70;99.90
8684;DHT22;4379;59.744;18.206;2023-03-01T13:26:08;7.80;99.90
8684;DHT22;4379;59.744;18.206;2023-03-01T13:34:00;8.50;99.90
8684;DHT22;4379;59.744;18.206;2023-03-01T13:38:59;8.50;99.90
8684;DHT22;4379;59.744;18.206;2023-03-01T13:44:32;8.10;99.90
8684;DHT22;4379;59.744;18.206;2023-03-01T13:52:37;7.70;99.90
8684;DHT22;4379;59.744;18.206;2023-03-01T13:57:53;7.60;99.90
8684;DHT22;4379;59.744;18.206;2023-03-01T14:05:33;7.80;99.90
8684;DHT22;4379;59.744;18.206;2023-03-01T14:08:01;7.70;99.90
8684;DHT22;4379;59.744;18.206;2023-03-01T14:10:39;7.70;99.90
8684;DHT22;4379;59.744;18.206;2023-03-01T14:19:21;7.50;99.90
8684;DHT22;4379;59.744;18.206;2023-03-01T14:27:37;7.60;99.90
8684;DHT22;4379;59.744;18.206;2023-03-01T14:30:19;7.50;99.90
8684;DHT22;4379;59.744;18.206;2023-03-01T14:33:05;7.50;99.90
8684;DHT22;4379;59.744;18.206;2023-03-01T14:35:36;7.40;99.90
8684;DHT22;4379;59.744;18.206;2023-03-01T14:38:04;7.30;99.90
8684;DHT22;4379;59.744;18.206;2023-03-01T14:40:35;7.40;99.90
8684;DHT22;4379;59.744;18.206;2023-03-01T14:43:10;7.50;99.90
8684;DHT22;4379;59.744;18.206;2023-03-01T14:45:38;7.30;99.90
8684;DHT22;4379;59.744;18.206;2023-03-01T14:48:06;7.40;99.90
8684;DHT22;4379;59.744;18.206;2023-03-01T14:50:36;7.40;99.90
8684;DHT22;4379;59.744;18.206;2023-03-01T14:53:23;7.30;99.90
8684;DHT22;4379;59.744;18.206;2023-03-01T14:55:56;7.40;99.90
8684;DHT22;4379;59.744;18.206;2023-03-01T14:58:27;7.50;99.90
8684;DHT22;4379;59.744;18.206;2023-03-01T15:01:00;7.40;99.90
8684;DHT22;4379;59.744;18.206;2023-03-01T15:03:42;7.30;99.90
8684;DHT22;4379;59.744;18.206;2023-03-01T15:06:15;7.30;99.90
8684;DHT22;4379;59.744;18.206;2023-03-01T15:08:47;7.10;99.90
8684;DHT22;4379;59.744;18.206;2023-03-01T15:11:29;7.10;99.90
8684;DHT22;4379;59.744;18.206;2023-03-01T15:13:57;7.10;99.90
8684;DHT22;4379;59.744;18.206;2023-03-01T15:16:26;6.90;99.90
8684;DHT22;4379;59.744;18.206;2023-03-01T15:19:05;6.90;99.90
8684;DHT22;4379;59.744;18.206;2023-03-01T15:21:35;6.90;99.90
8684;DHT22;4379;59.744;18.206;2023-03-01T15:26:57;6.80;99.90
8684;DHT22;4379;59.744;18.206;2023-03-01T15:29:30;6.70;99.90
8684;DHT22;4379;59.744;18.206;2023-03-01T15:32:05;6.60;99.90
8684;DHT22;4379;59.744;18.206;2023-03-01T15:34:35;6.60;99.90
8684;DHT22;4379;59.744;18.206;2023-03-01T15:37:06;6.60;99.90
8684;DHT22;4379;59.744;18.206;2023-03-01T15:39:57;6.50;99.90
8684;DHT22;4379;59.744;18.206;2023-03-01T15:47:47;6.60;99.90
8684;DHT22;4379;59.744;18.206;2023-03-01T15:50:32;6.50;99.90
8684;DHT22;4379;59.744;18.206;2023-03-01T15:53:03;6.40;99.90
8684;DHT22;4379;59.744;18.206;2023-03-01T15:55:33;6.30;99.90
8684;DHT22;4379;59.744;18.206;2023-03-01T15:58:24;6.20;99.90
8684;DHT22;4379;59.744;18.206;2023-03-01T16:00:52;6.00;99.90
8684;DHT22;4379;59.744;18.206;2023-03-01T16:03:28;5.90;99.90
8684;DHT22;4379;59.744;18.206;2023-03-01T16:05:56;5.80;99.90
8684;DHT22;4379;59.744;18.206;2023-03-01T16:08:23;5.80;99.90
8684;DHT22;4379;59.744;18.206;2023-03-01T16:10:51;5.80;99.90
8684;DHT22;4379;59.744;18.206;2023-03-01T16:13:22;5.80;99.90
8684;DHT22;4379;59.744;18.206;2023-03-01T16:15:49;5.80;99.90
8684;DHT22;4379;59.744;18.206;2023-03-01T16:18:17;5.70;99.90
8684;DHT22;4379;59.744;18.206;2023-03-01T16:20:47;5.70;99.90
8684;DHT22;4379;59.744;18.206;2023-03-01T16:23:21;5.60;99.90
8684;DHT22;4379;59.744;18.206;2023-03-01T16:25:51;5.50;99.90
8684;DHT22;4379;59.744;18.206;2023-03-01T16:28:19;5.50;99.90
8684;DHT22;4379;59.744;18.206;2023-03-01T16:30:49;5.40;99.90
8684;DHT22;4379;59.744;18.206;2023-03-01T16:33:18;5.40;99.90
8684;DHT22;4379;59.744;18.206;2023-03-01T16:35:59;5.40;99.90
8684;DHT22;4379;59.744;18.206;2023-03-01T16:38:31;5.40;99.90
8684;DHT22;4379;59.744;18.206;2023-03-01T16:40:58;5.30;99.90
8684;DHT22;4379;59.744;18.206;2023-03-01T16:43:26;5.20;99.90
8684;DHT22;4379;59.744;18.206;2023-03-01T16:45:53;5.20;99.90
8684;DHT22;4379;59.744;18.206;2023-03-01T16:48:22;5.20;99.90
8684;DHT22;4379;59.744;18.206;2023-03-01T16:51:00;5.10;99.90
8684;DHT22;4379;59.744;18.206;2023-03-01T16:53:36;5.10;99.90
8684;DHT22;4379;59.744;18.206;2023-03-01T16:56:06;5.00;99.90
8684;DHT22;4379;59.744;18.206;2023-03-01T16:58:35;5.00;99.90
8684;DHT22;4379;59.744;18.206;2023-03-01T17:01:06;5.00;99.90
8684;DHT22;4379;59.744;18.206;2023-03-01T17:03:34;5.00;99.90
8684;DHT22;4379;59.744;18.206;2023-03-01T17:06:05;5.00;99.90
8684;DHT22;4379;59.744;18.206;2023-03-01T17:08:33;5.00;99.90
8684;DHT22;4379;59.744;18.206;2023-03-01T17:11:09;4.90;99.90
8684;DHT22;4379;59.744;18.206;2023-03-01T17:13:38;4.90;99.90
8684;DHT22;4379;59.744;18.206;2023-03-01T17:16:14;4.90;99.90
8684;DHT22;4379;59.744;18.206;2023-03-01T17:18:43;4.80;99.90
8684;DHT22;4379;59.744;18.206;2023-03-01T17:21:12;4.80;99.90
8684;DHT22;4379;59.744;18.206;2023-03-01T17:23:43;4.70;99.90
8684;DHT22;4379;59.744;18.206;2023-03-01T17:26:20;4.70;99.90
8684;DHT22;4379;59.744;18.206;2023-03-01T17:28:56;4.60;99.90
8684;DHT22;4379;59.744;18.206;2023-03-01T17:31:25;4.60;99.90
8684;DHT22;4379;59.744;18.206;2023-03-01T17:33:56;4.60;99.90
8684;DHT22;4379;59.744;18.206;2023-03-01T17:36:27;4.70;99.90
8684;DHT22;4379;59.744;18.206;2023-03-01T17:38:54;4.70;99.90
8684;DHT22;4379;59.744;18.206;2023-03-01T17:41:22;4.70;99.90
8684;DHT22;4379;59.744;18.206;2023-03-01T17:43:51;4.70;99.90
8684;DHT22;4379;59.744;18.206;2023-03-01T17:46:18;4.80;99.90
8684;DHT22;4379;59.744;18.206;2023-03-01T17:48:47;4.70;99.90
8684;DHT22;4379;59.744;18.206;2023-03-01T17:51:15;4.60;99.90
8684;DHT22;4379;59.744;18.206;2023-03-01T17:53:43;4.60;99.90
8684;DHT22;4379;59.744;18.206;2023-03-01T17:56:10;4.60;99.90
8684;DHT22;4379;59.744;18.206;2023-03-01T17:58:38;4.60;99.90
8684;DHT22;4379;59.744;18.206;2023-03-01T18:01:11;4.70;99.90
8684;DHT22;4379;59.744;18.206;2023-03-01T18:03:41;4.70;99.90
8684;DHT22;4379;59.744;18.206;2023-03-01T18:06:16;4.80;99.90
8684;DHT22;4379;59.744;18.206;2023-03-01T18:08:44;4.70;99.90
8684;DHT22;4379;59.744;18.206;2023-03-01T18:11:13;4.80;99.90
8684;DHT22;4379;59.744;18.206;2023-03-01T18:13:40;4.80;99.90
8684;DHT22;4379;59.744;18.206;2023-03-01T18:16:10;4.70;99.90
8684;DHT22;4379;59.744;18.206;2023-03-01T18:18:38;4.80;99.90
8684;DHT22;4379;59.744;18.206;2023-03-01T18:21:09;4.80;99.90
8684;DHT22;4379;59.744;18.206;2023-03-01T18:23:37;4.70;99.90
8684;DHT22;4379;59.744;18.206;2023-03-01T18:26:08;4.80;99.90
8684;DHT22;4379;59.744;18.206;2023-03-01T18:28:36;4.90;99.90
8684;DHT22;4379;59.744;18.206;2023-03-01T18:31:08;5.00;99.90
8684;DHT22;4379;59.744;18.206;2023-03-01T18:33:40;5.20;99.90
8684;DHT22;4379;59.744;18.206;2023-03-01T18:36:26;5.30;99.90
8684;DHT22;4379;59.744;18.206;2023-03-01T18:38:54;5.40;99.90
8684;DHT22;4379;59.744;18.206;2023-03-01T18:41:24;5.40;99.90
8684;DHT22;4379;59.744;18.206;2023-03-01T18:43:55;5.40;99.90
8684;DHT22;4379;59.744;18.206;2023-03-01T18:46:29;5.20;99.90
8684;DHT22;4379;59.744;18.206;2023-03-01T18:48:57;5.20;99.90
8684;DHT22;4379;59.744;18.206;2023-03-01T18:51:28;5.00;99.90
8684;DHT22;4379;59.744;18.206;2023-03-01T18:53:58;4.90;99.90
8684;DHT22;4379;59.744;18.206;2023-03-01T18:56:29;4.80;99.90